createdAt,value
2023-11-09T00:01:31.303Z,6.61
2023-11-09T00:06:33.454Z,6.64
2023-11-09T00:11:36.224Z,6.57
2023-11-09T00:16:37.070Z,6.48
2023-11-09T00:21:39.209Z,6.54
2023-11-09T00:26:43.016Z,6.54
2023-11-09T00:31:43.932Z,6.59
2023-11-09T00:36:46.087Z,6.50
2023-11-09T00:41:46.886Z,6.42
2023-11-09T00:46:47.700Z,6.36
2023-11-09T00:51:49.847Z,6.39
2023-11-09T00:56:50.691Z,6.36
2023-11-09T01:01:51.464Z,6.37
2023-11-09T01:06:53.637Z,6.32
2023-11-09T01:11:54.422Z,6.29
2023-11-09T01:16:55.213Z,6.29
2023-11-09T01:21:57.477Z,6.21
2023-11-09T01:26:58.302Z,6.29
2023-11-09T01:31:59.813Z,6.26
2023-11-09T01:37:01.992Z,6.33
2023-11-09T01:42:03.116Z,6.20
2023-11-09T01:47:04.548Z,6.16
2023-11-09T01:52:07.755Z,6.15
2023-11-09T01:57:11.389Z,6.19
2023-11-09T02:02:12.399Z,6.12
2023-11-09T02:07:14.695Z,6.19
2023-11-09T02:12:15.543Z,6.11
2023-11-09T02:17:16.513Z,6.09
2023-11-09T02:22:20.083Z,6.04
2023-11-09T02:27:22.289Z,6.00
2023-11-09T02:32:23.130Z,5.97
2023-11-09T02:37:26.056Z,5.97
2023-11-09T02:42:28.256Z,5.92
2023-11-09T02:47:29.102Z,5.81
2023-11-09T02:52:30.009Z,5.80
2023-11-09T02:57:32.186Z,5.73
2023-11-09T03:02:33.682Z,5.68
2023-11-09T03:07:34.482Z,5.70
2023-11-09T03:12:36.787Z,5.62
2023-11-09T03:17:38.500Z,5.68
2023-11-09T03:22:39.393Z,5.77
2023-11-09T03:27:41.597Z,5.88
2023-11-09T03:32:42.439Z,6.02
2023-11-09T03:37:43.905Z,6.04
2023-11-09T03:42:46.905Z,6.21
2023-11-09T03:47:47.754Z,6.40
2023-11-09T03:52:48.808Z,6.40
2023-11-09T03:57:50.942Z,6.40
2023-11-09T04:02:51.790Z,6.35
2023-11-09T04:07:52.669Z,6.41
2023-11-09T04:12:54.803Z,6.34
2023-11-09T04:17:55.612Z,6.31
2023-11-09T04:22:56.433Z,6.31
2023-11-09T04:27:58.936Z,6.26
2023-11-09T04:33:01.284Z,6.18
2023-11-09T04:38:03.790Z,6.07
2023-11-09T04:43:07.344Z,6.06
2023-11-09T04:48:09.683Z,6.07
2023-11-09T04:53:30.895Z,5.96
2023-11-09T04:58:49.139Z,5.94
2023-11-09T05:04:07.843Z,5.89
2023-11-09T05:09:08.737Z,6.07
2023-11-09T05:14:10.847Z,6.14
2023-11-09T05:19:12.023Z,7.18
2023-11-09T05:24:12.826Z,7.69
2023-11-09T05:29:14.949Z,7.27
2023-11-09T05:34:16.352Z,6.97
2023-11-09T05:39:17.223Z,6.72
2023-11-09T05:44:19.405Z,6.51
2023-11-09T05:49:20.287Z,6.50
2023-11-09T05:54:21.379Z,6.46
2023-11-09T05:59:24.556Z,6.43
2023-11-09T06:04:25.582Z,6.29
2023-11-09T06:09:26.641Z,6.34
2023-11-09T06:14:29.158Z,6.31
2023-11-09T06:19:30.206Z,6.37
2023-11-09T06:24:31.091Z,6.27
2023-11-09T06:29:34.085Z,6.30
2023-11-09T06:34:35.650Z,6.34
2023-11-09T06:39:36.547Z,6.57
2023-11-09T06:44:38.647Z,6.76
2023-11-09T06:49:39.703Z,6.96
2023-11-09T06:54:41.826Z,7.22
2023-11-09T06:59:43.991Z,7.34
2023-11-09T07:04:44.965Z,7.47
2023-11-09T07:09:46.495Z,7.41
2023-11-09T07:14:48.732Z,7.42
2023-11-09T07:19:50.120Z,7.60
2023-11-09T07:25:01.689Z,7.51
2023-11-09T07:30:11.257Z,7.70
2023-11-09T07:35:12.014Z,7.92
2023-11-09T07:40:14.769Z,8.03
2023-11-09T07:45:17.396Z,8.38
2023-11-09T07:50:18.382Z,8.50
2023-11-09T07:55:20.487Z,8.57
2023-11-09T08:00:24.386Z,8.60
2023-11-09T08:05:26.590Z,8.47
2023-11-09T08:10:28.483Z,8.47
2023-11-09T08:15:30.683Z,8.53
2023-11-09T08:20:32.497Z,8.48
2023-11-09T08:25:33.281Z,8.61
2023-11-09T08:30:35.471Z,8.63
2023-11-09T08:35:36.532Z,8.69
2023-11-09T08:40:37.736Z,8.85
2023-11-09T08:45:40.470Z,9.00
2023-11-09T08:50:42.332Z,9.15
2023-11-09T08:55:43.169Z,9.38
2023-11-09T09:00:45.886Z,9.56
2023-11-09T09:05:46.740Z,9.94
2023-11-09T09:10:58.453Z,10.05
2023-11-09T09:15:59.250Z,10.32
2023-11-09T09:21:00.248Z,10.59
2023-11-09T09:26:14.881Z,10.63
2023-11-09T09:31:17.623Z,10.81
2023-11-09T09:36:20.064Z,10.80
2023-11-09T09:41:30.156Z,10.83
2023-11-09T09:46:34.580Z,10.82
2023-11-09T09:51:37.928Z,10.83
2023-11-09T09:56:41.238Z,11.12
2023-11-09T10:01:48.804Z,11.40
2023-11-09T10:06:49.956Z,11.73
2023-11-09T10:11:54.219Z,11.79
2023-11-09T10:16:55.526Z,12.15
2023-11-09T10:22:06.425Z,12.30
2023-11-09T10:27:09.971Z,12.65
2023-11-09T10:32:20.495Z,13.16
2023-11-09T10:37:21.527Z,13.33
2023-11-09T10:42:27.305Z,13.60
2023-11-09T10:47:34.305Z,13.79
2023-11-09T10:52:36.495Z,14.06
2023-11-09T10:57:41.451Z,14.20
2023-11-09T11:02:51.433Z,14.25
2023-11-09T11:07:54.043Z,14.32
2023-11-09T11:12:59.932Z,14.17
2023-11-09T11:18:14.906Z,13.99
2023-11-09T11:23:46.409Z,14.04
2023-11-09T11:28:49.870Z,13.87
2023-11-09T11:33:53.039Z,13.68
2023-11-09T11:39:19.080Z,13.73
2023-11-09T11:44:32.153Z,14.12
2023-11-09T11:49:37.552Z,13.75
2023-11-09T11:54:38.482Z,13.82
2023-11-09T11:59:42.147Z,13.69
2023-11-09T12:04:48.468Z,13.75
2023-11-09T12:09:50.157Z,13.30
2023-11-09T12:14:52.896Z,13.11
2023-11-09T12:19:54.532Z,13.33
2023-11-09T12:25:01.637Z,13.40
2023-11-09T12:30:04.565Z,13.36
2023-11-09T12:35:05.919Z,13.33
2023-11-09T12:40:08.201Z,13.38
2023-11-09T12:45:12.907Z,13.16
2023-11-09T12:50:18.211Z,13.18
2023-11-09T12:55:24.407Z,13.15
2023-11-09T13:00:31.181Z,13.09
2023-11-09T13:05:34.530Z,13.12
2023-11-09T13:10:39.390Z,13.08
2023-11-09T13:15:43.242Z,13.09
2023-11-09T13:20:48.751Z,12.90
2023-11-09T13:25:51.163Z,12.89
2023-11-09T13:30:55.326Z,12.58
2023-11-09T13:35:58.648Z,12.67
2023-11-09T13:41:16.780Z,12.49
2023-11-09T13:46:24.043Z,12.43
2023-11-09T13:51:28.730Z,12.38
2023-11-09T13:57:03.101Z,12.17
2023-11-09T14:02:10.560Z,12.19
2023-11-09T14:07:14.295Z,12.07
2023-11-09T14:12:35.668Z,11.95
2023-11-09T14:17:38.899Z,11.96
2023-11-09T14:22:41.013Z,11.91
2023-11-09T14:27:41.972Z,11.77
2023-11-09T14:32:45.333Z,11.64
2023-11-09T14:37:47.332Z,11.69
2023-11-09T14:42:52.485Z,11.58
2023-11-09T14:48:02.320Z,11.43
2023-11-09T14:53:20.181Z,11.43
2023-11-09T14:58:32.167Z,11.38
2023-11-09T15:03:35.707Z,11.21
2023-11-09T15:08:38.408Z,11.25
2023-11-09T15:13:39.366Z,11.20
2023-11-09T15:18:43.821Z,11.18
2023-11-09T15:23:45.352Z,11.23
2023-11-09T15:28:46.290Z,11.02
2023-11-09T15:33:48.454Z,11.13
2023-11-09T15:38:50.655Z,11.35
2023-11-09T15:43:55.788Z,11.18
2023-11-09T15:49:00.170Z,11.31
2023-11-09T15:54:01.058Z,11.25
2023-11-09T15:59:01.951Z,10.98
2023-11-09T16:04:05.808Z,10.72
2023-11-09T16:09:10.870Z,10.62
2023-11-09T16:14:11.663Z,10.50
2023-11-09T16:19:14.451Z,10.56
2023-11-09T16:24:16.486Z,10.56
2023-11-09T16:29:17.631Z,10.38
2023-11-09T16:34:20.171Z,10.40
2023-11-09T16:39:22.616Z,10.42
2023-11-09T16:44:25.478Z,10.39
2023-11-09T16:49:27.730Z,10.27
2023-11-09T16:54:28.573Z,10.34
2023-11-09T16:59:29.740Z,10.26
2023-11-09T17:04:31.986Z,10.28
2023-11-09T17:09:33.099Z,10.16
2023-11-09T17:14:33.905Z,10.05
2023-11-09T17:19:36.077Z,10.11
2023-11-09T17:24:38.122Z,10.19
2023-11-09T17:29:38.900Z,10.12
2023-11-09T17:34:41.032Z,10.07
2023-11-09T17:39:42.596Z,10.21
2023-11-09T17:44:44.587Z,10.20
2023-11-09T17:49:49.533Z,10.14
2023-11-09T17:54:50.727Z,10.23
2023-11-09T17:59:51.573Z,10.30
2023-11-09T18:04:53.801Z,10.27
2023-11-09T18:09:54.886Z,10.34
2023-11-09T18:14:58.304Z,10.32
2023-11-09T18:20:00.566Z,10.30
2023-11-09T18:25:01.420Z,10.33
2023-11-09T18:30:02.252Z,10.39
2023-11-09T18:35:07.561Z,10.38
2023-11-09T18:40:10.280Z,10.36
2023-11-09T18:45:11.431Z,10.27
2023-11-09T18:55:18.063Z,10.35
2023-11-09T19:00:19.886Z,10.41
2023-11-09T19:05:22.156Z,10.50
2023-11-09T19:10:23.310Z,10.58
2023-11-09T19:15:26.257Z,10.24
2023-11-09T19:25:35.251Z,9.81
2023-11-09T19:30:36.141Z,9.52
2023-11-09T19:35:38.408Z,9.42
2023-11-09T19:40:46.414Z,9.34
2023-11-09T19:45:48.080Z,9.22
2023-11-09T19:50:50.593Z,9.12
2023-11-09T19:55:52.229Z,9.08
2023-11-09T20:00:53.470Z,8.94
2023-11-09T20:05:56.467Z,8.88
2023-11-09T20:10:57.236Z,8.88
2023-11-09T20:15:58.296Z,8.87
2023-11-09T20:21:00.911Z,8.90
2023-11-09T20:26:01.750Z,8.95
2023-11-09T20:31:02.650Z,8.88
2023-11-09T20:36:05.414Z,8.78
2023-11-09T20:41:06.287Z,8.78
2023-11-09T20:46:10.307Z,8.78
2023-11-09T20:51:14.765Z,8.59
2023-11-09T20:56:15.978Z,8.69
2023-11-09T21:01:16.835Z,8.67
2023-11-09T21:06:19.186Z,8.59
2023-11-09T21:11:20.033Z,8.73
2023-11-09T21:16:20.874Z,8.68
2023-11-09T21:21:23.060Z,8.58
2023-11-09T21:26:24.165Z,8.52
2023-11-09T21:31:25.198Z,8.50
2023-11-09T21:36:27.445Z,8.50
2023-11-09T21:41:28.713Z,8.48
2023-11-09T21:46:29.643Z,8.45
2023-11-09T21:51:34.035Z,8.40
2023-11-09T21:56:41.405Z,8.40
2023-11-09T22:01:42.504Z,8.36
2023-11-09T22:06:44.766Z,8.43
2023-11-09T22:11:45.873Z,8.39
2023-11-09T22:16:46.836Z,8.38
2023-11-09T22:21:49.989Z,8.42
2023-11-09T22:26:50.921Z,8.45
2023-11-09T22:31:51.763Z,8.50
2023-11-09T22:36:53.878Z,8.42
2023-11-09T22:41:55.414Z,8.48
2023-11-09T22:46:56.196Z,8.52
2023-11-09T22:51:58.691Z,8.59
2023-11-09T22:56:59.583Z,8.60
2023-11-09T23:02:01.065Z,8.61
2023-11-09T23:07:03.243Z,8.63
2023-11-09T23:12:04.413Z,8.72
2023-11-09T23:17:05.642Z,8.75
2023-11-09T23:22:07.839Z,8.80
2023-11-09T23:27:08.659Z,8.79
2023-11-09T23:32:10.057Z,8.65
2023-11-09T23:37:12.221Z,8.63
2023-11-09T23:42:13.113Z,8.63
2023-11-09T23:47:14.000Z,8.59
2023-11-09T23:52:16.630Z,8.55
2023-11-09T23:57:17.483Z,8.57
